Time;durP1;ratioP1;P1;durP2;ratioP2;P2;SDS_P1;SDS_P2;PMS_P1;PMS_P2;Temp;Humidity;BMP_temperature;BMP_pressure;BME280_temperature;BME280_humidity;BME280_pressure;Samples;Min_cycle;Max_cycle;Signal;HPM_P1;HPM_P2
2021/12/04 00:01:51;;;;;;;6.80;5.53;;;;;;;12.87;71.15;100973.09;4847860;29;101994;-88
2021/12/04 00:04:24;;;;;;;6.35;5.50;;;;;;;12.85;71.16;100975.31;4847534;29;102095;-87
2021/12/04 00:06:51;;;;;;;6.45;5.45;;;;;;;12.85;71.28;100975.31;4846992;29;102026;-88
2021/12/04 00:09:20;;;;;;;6.05;5.18;;;;;;;12.87;71.23;100984.03;4830877;29;102637;-88
2021/12/04 00:11:52;;;;;;;7.65;6.13;;;;;;;12.85;71.32;100980.78;4847707;29;101552;-88
2021/12/04 00:14:19;;;;;;;6.90;6.20;;;;;;;12.85;71.17;100975.31;4829308;29;102099;-88
2021/12/04 00:16:46;;;;;;;7.45;5.65;;;;;;;12.85;71.22;100962.47;4848544;29;102062;-88
2021/12/04 00:19:12;;;;;;;9.73;6.57;;;;;;;12.85;71.06;100967.13;4845630;29;102729;-88
2021/12/04 00:21:40;;;;;;;7.28;5.40;;;;;;;12.86;71.36;100968.75;4847792;29;101836;-88
2021/12/04 00:24:07;;;;;;;7.55;5.80;;;;;;;12.84;71.10;100971.78;4847342;29;101782;-88
2021/12/04 00:26:33;;;;;;;7.00;5.60;;;;;;;12.84;71.18;100974.50;4848486;29;102029;-88
2021/12/04 00:29:00;;;;;;;8.77;5.65;;;;;;;12.85;71.03;100972.59;4846876;29;102770;-88
2021/12/04 00:31:27;;;;;;;6.95;5.68;;;;;;;12.84;71.03;100979.13;4831141;29;101596;-88
2021/12/04 00:33:54;;;;;;;7.10;5.95;;;;;;;12.85;71.26;100975.31;4847103;29;101547;-88
2021/12/04 00:50:08;;;;;;;7.32;6.00;;;;;;;12.85;71.00;100972.59;4826426;29;102714;-88
2021/12/04 00:52:35;;;;;;;7.53;5.93;;;;;;;12.83;71.21;100955.66;4811516;29;102105;-88
2021/12/04 00:55:05;;;;;;;7.38;5.85;;;;;;;12.83;71.43;100955.66;4828220;29;101783;-88
2021/12/04 00:57:33;;;;;;;7.97;6.20;;;;;;;12.83;71.09;100950.19;4826751;29;102063;-88
2021/12/04 01:00:00;;;;;;;7.60;6.30;;;;;;;12.83;71.07;100952.91;4827373;29;102954;-88
2021/12/04 01:02:27;;;;;;;7.93;5.97;;;;;;;12.83;71.03;100955.66;4827752;29;101843;-88
2021/12/04 01:04:54;;;;;;;8.05;6.22;;;;;;;12.83;70.81;100950.19;4828170;29;101713;-88
2021/12/04 01:07:20;;;;;;;6.97;6.15;;;;;;;12.82;71.01;100951.28;4829128;29;102064;-88
2021/12/04 01:09:47;;;;;;;6.93;6.15;;;;;;;12.83;71.21;100950.19;4827932;29;102715;-88
2021/12/04 01:12:16;;;;;;;8.50;6.53;;;;;;;12.82;71.07;100959.50;4828708;29;102021;-87
2021/12/04 01:14:43;;;;;;;7.88;6.35;;;;;;;12.82;71.05;100954.84;4811605;29;102119;-88
2021/12/04 01:17:09;;;;;;;10.30;7.03;;;;;;;12.83;71.11;100958.38;4829210;29;102047;-88
2021/12/04 01:19:39;;;;;;;11.07;7.32;;;;;;;12.82;70.99;100954.03;4810560;29;102878;-88
2021/12/04 01:22:06;;;;;;;11.27;7.28;;;;;;;12.82;70.97;100954.03;4826004;29;101940;-92
2021/12/04 01:24:32;;;;;;;10.40;7.32;;;;;;;12.81;71.01;100957.88;4814814;29;102033;-91
2021/12/04 01:26:59;;;;;;;10.32;7.10;;;;;;;12.82;70.81;100962.22;4816309;29;102158;-91
2021/12/04 01:29:27;;;;;;;12.48;7.40;;;;;;;12.81;70.78;100958.69;4816244;29;103146;-92
2021/12/04 01:31:53;;;;;;;11.10;7.30;;;;;;;12.81;71.00;100955.13;4816453;29;102235;-92
2021/12/04 01:34:20;;;;;;;11.48;7.70;;;;;;;12.82;70.92;100954.03;4823433;29;102021;-92
2021/12/04 01:36:46;;;;;;;11.70;7.47;;;;;;;12.81;70.78;100958.69;4818695;29;101980;-92
2021/12/04 01:39:13;;;;;;;9.30;6.78;;;;;;;12.80;70.94;100956.22;4830660;29;102895;-91
2021/12/04 01:41:39;;;;;;;10.57;7.70;;;;;;;12.81;70.74;100952.41;4806666;29;102039;-92
2021/12/04 01:44:06;;;;;;;9.07;6.93;;;;;;;12.81;70.88;100952.41;4837336;29;102230;-92
2021/12/04 01:46:34;;;;;;;10.13;7.28;;;;;;;12.80;71.06;100951.56;4839333;29;102153;-92
2021/12/04 01:49:01;;;;;;;11.07;7.87;;;;;;;12.81;70.84;100946.94;4827884;29;102756;-91
2021/12/04 01:51:28;;;;;;;10.50;7.35;;;;;;;12.80;71.03;100945.28;4823394;29;102151;-91
2021/12/04 01:53:54;;;;;;;11.30;7.70;;;;;;;12.80;70.99;100948.81;4849942;29;102052;-92
2021/12/04 01:56:21;;;;;;;9.60;7.50;;;;;;;12.80;71.03;100945.28;4840560;29;102224;-92
2021/12/04 01:58:48;;;;;;;9.38;7.53;;;;;;;12.80;70.92;100948.00;4843743;29;102745;-92
2021/12/04 02:01:14;;;;;;;10.93;7.85;;;;;;;12.79;70.96;100938.19;4852256;29;102169;-92
2021/12/04 02:03:42;;;;;;;11.20;7.55;;;;;;;12.78;70.88;100937.38;4848872;29;102019;-92
2021/12/04 02:06:08;;;;;;;10.25;7.57;;;;;;;12.80;70.81;100934.34;4841344;29;102161;-92
2021/12/04 02:08:34;;;;;;;10.35;7.07;;;;;;;12.79;71.03;100933.53;4833662;29;102706;-92
2021/12/04 02:11:01;;;;;;;9.98;7.68;;;;;;;12.78;71.05;100931.91;4838984;29;102007;-92
2021/12/04 02:13:28;;;;;;;9.23;7.55;;;;;;;12.78;70.93;100926.47;4841667;29;102065;-88
2021/12/04 02:15:54;;;;;;;10.07;7.68;;;;;;;12.78;70.94;100931.91;4850396;29;102031;-88
2021/12/04 02:18:21;;;;;;;9.25;7.15;;;;;;;12.78;70.96;100931.91;4832969;29;102717;-88
2021/12/04 02:20:49;;;;;;;9.23;7.47;;;;;;;12.79;70.77;100938.19;4830897;29;101657;-88
2021/12/04 02:23:17;;;;;;;8.13;7.18;;;;;;;12.77;70.71;100938.50;4813518;29;101721;-88
2021/12/04 02:25:44;;;;;;;9.00;6.95;;;;;;;12.77;70.42;100935.75;4831451;29;102055;-88
2021/12/04 02:28:12;;;;;;;10.95;8.00;;;;;;;12.78;70.55;100936.56;4829797;29;102730;-88
2021/12/04 02:30:43;;;;;;;10.32;8.38;;;;;;;12.78;70.81;100942.84;4830685;29;101988;-88
2021/12/04 02:33:13;;;;;;;9.38;7.50;;;;;;;12.78;70.82;100942.03;4830225;29;101746;-88
2021/12/04 02:35:41;;;;;;;9.70;7.70;;;;;;;12.78;70.65;100955.69;4830955;29;102249;-89
2021/12/04 02:38:09;;;;;;;9.85;7.57;;;;;;;12.77;71.04;100945.88;4828473;29;102741;-89
2021/12/04 02:40:36;;;;;;;8.27;7.30;;;;;;;12.77;70.80;100934.94;4813016;29;101684;-88
2021/12/04 02:43:04;;;;;;;8.45;7.55;;;;;;;12.77;70.87;100945.88;4824337;29;102201;-88
2021/12/04 02:45:30;;;;;;;9.68;8.43;;;;;;;12.78;70.75;100950.22;4811200;29;102076;-88
2021/12/04 02:47:57;;;;;;;9.88;7.32;;;;;;;12.78;70.84;100963.88;4810900;29;102753;-88
2021/12/04 02:50:23;;;;;;;8.32;7.22;;;;;;;12.77;70.81;100967.72;4811730;29;101645;-88
2021/12/04 02:52:50;;;;;;;9.05;7.97;;;;;;;12.77;70.85;100973.19;4810117;29;101983;-88
2021/12/04 02:55:19;;;;;;;9.50;7.70;;;;;;;12.77;70.91;100970.44;4815288;29;103539;-88
2021/12/04 02:57:46;;;;;;;;;;;;;;;12.75;70.62;100982.44;4829488;29;102699;-89
2021/12/04 03:00:15;;;;;;;9.18;7.28;;;;;;;12.76;70.68;100988.72;4830194;29;101844;-88
2021/12/04 03:02:42;;;;;;;8.63;7.63;;;;;;;12.77;70.74;101005.94;4812019;29;101596;-88
2021/12/04 03:05:10;;;;;;;9.10;8.10;;;;;;;12.75;70.69;101004.28;4831188;29;102075;-88
2021/12/04 03:07:37;;;;;;;10.32;8.48;;;;;;;12.76;70.68;101016.03;4828917;29;102822;-88
2021/12/04 03:10:06;;;;;;;8.43;7.53;;;;;;;12.75;70.71;101014.41;4813755;29;101746;-88
2021/12/04 03:12:38;;;;;;;9.13;7.55;;;;;;;12.75;70.48;101015.22;4811354;29;101963;-88
2021/12/04 03:15:06;;;;;;;8.75;7.53;;;;;;;12.76;70.56;101010.56;4830723;29;102015;-87
2021/12/04 03:17:35;;;;;;;9.80;7.72;;;;;;;12.77;70.55;101011.41;4810642;29;102721;-88
2021/12/04 03:20:03;;;;;;;8.35;7.55;;;;;;;12.75;70.72;101015.22;4830048;29;101975;-88
2021/12/04 03:22:31;;;;;;;10.32;7.82;;;;;;;12.75;70.70;101017.94;4812953;29;102143;-88
2021/12/04 03:24:58;;;;;;;9.27;7.65;;;;;;;12.74;70.73;101019.06;4829987;29;102351;-88
2021/12/04 03:27:28;;;;;;;8.13;7.32;;;;;;;12.75;70.64;101017.13;4828865;29;102398;-88
2021/12/04 03:29:59;;;;;;;8.23;7.38;;;;;;;12.74;70.75;101008.13;4828590;29;101530;-88
2021/12/04 03:35:21;;;;;;;8.75;7.90;;;;;;;12.73;70.71;101006.50;4829621;29;101807;-88
2021/12/04 03:43:06;;;;;;;8.88;7.93;;;;;;;12.73;70.59;101001.03;4834398;29;101937;-89
2021/12/04 03:45:36;;;;;;;9.20;8.20;;;;;;;12.74;70.61;101008.13;4832230;29;102141;-89
2021/12/04 03:48:10;;;;;;;8.32;7.35;;;;;;;12.76;70.42;101021.50;4830855;29;102800;-89
2021/12/04 03:50:37;;;;;;;8.60;7.70;;;;;;;12.75;70.21;101008.94;4848595;29;101515;-89
2021/12/04 03:53:04;;;;;;;9.10;7.85;;;;;;;12.73;70.69;101001.03;4848732;29;101539;-89
2021/12/04 03:55:31;;;;;;;8.65;7.75;;;;;;;12.75;70.49;101004.28;4832567;29;101686;-89
2021/12/04 03:57:58;;;;;;;9.00;7.80;;;;;;;12.73;70.40;101006.50;4847891;29;102730;-89
2021/12/04 04:00:28;;;;;;;9.48;8.40;;;;;;;12.74;70.73;100996.41;4848142;29;102030;-89
2021/12/04 04:02:58;;;;;;;8.95;7.45;;;;;;;12.73;70.68;101003.78;4830907;29;102007;-89
2021/12/04 04:05:24;;;;;;;9.63;7.25;;;;;;;12.74;70.50;101002.66;4848538;29;102087;-89
2021/12/04 04:07:52;;;;;;;8.95;7.90;;;;;;;12.74;70.69;101008.13;4831038;29;102844;-89
2021/12/04 04:10:20;;;;;;;8.32;7.40;;;;;;;12.73;70.68;101006.50;4847843;29;101559;-89
2021/12/04 04:12:47;;;;;;;9.40;7.95;;;;;;;12.73;70.52;101006.50;4847604;29;101758;-89
2021/12/04 04:15:14;;;;;;;8.55;7.70;;;;;;;12.74;70.40;101008.13;4831899;29;102021;-89
2021/12/04 04:17:43;;;;;;;7.93;6.85;;;;;;;12.73;70.56;101011.97;4846943;29;102425;-89
2021/12/04 04:20:15;;;;;;;8.77;7.32;;;;;;;12.73;70.50;101020.16;4847520;29;102006;-89
2021/12/04 04:22:43;;;;;;;8.20;7.40;;;;;;;12.73;70.54;101022.88;4845658;29;101504;-89
2021/12/04 04:25:11;;;;;;;8.38;7.45;;;;;;;12.73;70.35;101031.09;4848224;29;101998;-89
2021/12/04 04:27:38;;;;;;;8.95;7.82;;;;;;;12.73;70.50;101028.34;4830379;29;102741;-89
2021/12/04 04:30:10;;;;;;;8.77;7.88;;;;;;;12.74;70.52;101029.16;4847524;29;102038;-89
2021/12/04 04:32:37;;;;;;;10.23;8.65;;;;;;;12.73;70.59;101031.09;4845705;29;102015;-89
2021/12/04 04:35:12;;;;;;;9.77;7.57;;;;;;;12.72;70.52;101037.63;4848279;29;102078;-88
2021/12/04 05:02:23;;;;;;;7.75;6.97;;;;;;;12.71;70.41;101019.59;4845992;29;101968;-89
2021/12/04 05:10:19;;;;;;;8.23;7.28;;;;;;;12.72;70.38;101009.50;4847934;29;101671;-89
2021/12/04 05:13:17;;;;;;;8.57;7.75;;;;;;;12.70;70.57;101001.59;4844561;29;101713;-89
2021/12/04 05:20:54;;;;;;;8.90;8.00;;;;;;;12.72;70.17;101009.50;4844190;29;102802;-89
2021/12/04 05:23:22;;;;;;;8.52;7.63;;;;;;;12.70;70.66;101006.25;4828264;29;101972;-88
2021/12/04 05:25:50;;;;;;;8.75;7.53;;;;;;;12.70;70.35;101007.06;4848815;29;101942;-89
2021/12/04 05:28:17;;;;;;;7.95;7.15;;;;;;;12.70;70.38;101017.97;4850942;29;101998;-88
2021/12/04 05:30:43;;;;;;;9.35;7.72;;;;;;;12.70;70.37;101009.78;4849565;29;102835;-89
2021/12/04 05:33:10;;;;;;;8.82;7.78;;;;;;;12.70;70.58;101007.06;4849990;29;101508;-89
2021/12/04 05:35:36;;;;;;;9.18;7.75;;;;;;;12.69;70.38;101007.31;4849165;29;101753;-88
2021/12/04 05:38:03;;;;;;;9.25;8.27;;;;;;;12.70;70.50;101007.06;4850837;29;102060;-88
2021/12/04 05:40:30;;;;;;;8.23;7.32;;;;;;;12.69;70.44;101005.44;4832481;29;102649;-88
2021/12/04 05:43:02;;;;;;;9.85;8.15;;;;;;;12.69;70.44;101005.44;4827260;29;102234;-89
2021/12/04 05:45:30;;;;;;;9.20;7.88;;;;;;;12.70;70.39;101011.72;4829749;29;102040;-88
2021/12/04 05:55:59;;;;;;;10.90;8.20;;;;;;;12.69;70.43;101004.59;4817541;29;101630;-89
2021/12/04 05:58:28;;;;;;;9.48;8.10;;;;;;;12.68;70.39;101003.78;4824396;29;101757;-90
2021/12/04 06:00:57;;;;;;;10.90;8.95;;;;;;;12.68;70.42;101003.78;4813948;29;102799;-90
2021/12/04 06:03:24;;;;;;;9.50;7.82;;;;;;;12.68;70.34;101003.78;4814809;29;101847;-90
2021/12/04 06:05:51;;;;;;;9.82;8.32;;;;;;;12.67;70.42;100996.69;4830641;29;101977;-89
2021/12/04 06:08:19;;;;;;;8.20;7.38;;;;;;;12.69;70.29;101007.31;4831206;29;102193;-88
2021/12/04 06:10:48;;;;;;;8.90;8.02;;;;;;;12.69;70.40;101015.50;4813623;29;102771;-89
2021/12/04 06:13:15;;;;;;;9.98;8.27;;;;;;;12.68;70.44;101014.69;4830867;29;101887;-90
2021/12/04 06:15:44;;;;;;;9.48;7.47;;;;;;;12.68;70.13;101014.69;4830402;29;101757;-89
2021/12/04 06:18:11;;;;;;;8.70;7.23;;;;;;;12.68;70.37;101022.88;4831049;29;102034;-89
2021/12/04 06:23:23;;;;;;;9.07;7.78;;;;;;;12.67;70.16;101013.06;4829138;29;101995;-90
2021/12/04 06:25:51;;;;;;;8.60;7.72;;;;;;;12.69;70.15;101010.03;4830324;29;102119;-90
2021/12/04 06:28:18;;;;;;;8.73;7.55;;;;;;;12.69;70.27;101020.97;4827428;29;102108;-90
2021/12/04 06:30:46;;;;;;;12.45;8.25;;;;;;;12.68;70.21;101014.69;4848001;29;102826;-90
2021/12/04 06:33:18;;;;;;;8.63;7.73;;;;;;;12.67;70.41;101018.53;4829885;29;102019;-90
2021/12/04 06:35:46;;;;;;;9.23;8.32;;;;;;;12.68;70.21;101022.88;4827336;29;101782;-92
2021/12/04 06:38:17;;;;;;;8.95;8.05;;;;;;;12.68;70.22;101025.63;4833979;29;102179;-90
2021/12/04 06:40:45;;;;;;;9.63;8.38;;;;;;;12.68;70.38;101022.88;4829969;29;101664;-90
2021/12/04 06:43:12;;;;;;;9.60;7.93;;;;;;;12.68;70.18;101022.06;4813678;29;101741;-91
2021/12/04 06:45:41;;;;;;;8.60;7.80;;;;;;;12.68;70.28;101033.81;4830471;29;101781;-90
2021/12/04 06:48:11;;;;;;;28.60;10.30;;;;;;;12.70;70.23;101023.44;4832094;29;101795;-90
2021/12/04 06:50:49;;;;;;;11.15;8.93;;;;;;;12.69;70.14;101021.81;4816039;29;102701;-91
2021/12/04 06:55:54;;;;;;;11.00;8.35;;;;;;;12.70;70.29;101036.28;4828945;29;102027;-91
2021/12/04 06:58:21;;;;;;;9.82;7.78;;;;;;;12.69;70.16;101030.00;4811922;29;102160;-91
2021/12/04 07:00:48;;;;;;;9.32;8.10;;;;;;;12.70;70.28;101030.81;4811065;29;102748;-90
2021/12/04 07:03:16;;;;;;;9.32;8.43;;;;;;;12.70;70.18;101017.16;4824993;29;102112;-90
2021/12/04 07:05:43;;;;;;;8.98;8.07;;;;;;;12.70;70.18;101023.44;4810813;29;101849;-90
2021/12/04 07:08:10;;;;;;;10.68;8.77;;;;;;;12.69;70.32;101030.00;4812071;29;102080;-90
2021/12/04 07:10:37;;;;;;;9.98;8.50;;;;;;;12.70;70.21;101017.97;4826592;29;102240;-91
2021/12/04 07:13:05;;;;;;;8.45;7.63;;;;;;;12.70;70.44;101017.97;4809313;29;102044;-91
2021/12/04 07:15:32;;;;;;;8.88;7.97;;;;;;;12.70;70.26;101017.16;4843688;29;102121;-91
2021/12/04 07:17:59;;;;;;;9.70;8.68;;;;;;;12.69;70.28;101016.34;4804438;29;102275;-90
2021/12/04 07:20:27;;;;;;;9.60;8.60;;;;;;;12.70;70.21;101014.44;4837457;29;102898;-91
2021/12/04 07:22:54;;;;;;;9.23;8.33;;;;;;;12.70;70.30;101012.53;4848240;29;101904;-90
2021/12/04 07:25:21;;;;;;;9.43;8.52;;;;;;;12.70;70.17;101017.97;4830064;29;101901;-90
2021/12/04 07:27:50;;;;;;;9.20;7.97;;;;;;;12.70;70.20;101023.44;4831450;29;102043;-91
2021/12/04 07:30:17;;;;;;;9.48;8.18;;;;;;;12.70;70.20;101012.53;4809307;29;102469;-90
2021/12/04 07:32:45;;;;;;;9.35;8.32;;;;;;;12.70;70.24;101009.78;4811395;29;101993;-91
2021/12/04 07:35:11;;;;;;;10.10;8.60;;;;;;;12.70;70.20;101009.78;4810262;29;102135;-90
2021/12/04 07:37:39;;;;;;;9.55;8.55;;;;;;;12.70;70.41;101009.78;4833396;29;102038;-90
2021/12/04 07:40:06;;;;;;;10.43;8.45;;;;;;;12.72;70.10;101012.22;4811879;29;102645;-91
2021/12/04 07:42:33;;;;;;;11.35;8.77;;;;;;;12.71;70.10;101013.34;4843769;29;102999;-90
2021/12/04 07:45:00;;;;;;;8.85;7.65;;;;;;;12.71;70.10;101018.78;4866536;29;101857;-90
2021/12/04 07:47:26;;;;;;;10.75;9.30;;;;;;;12.70;70.16;101026.19;4850310;29;102028;-90
2021/12/04 07:49:53;;;;;;;13.60;8.77;;;;;;;12.70;70.13;101030.81;4849740;29;102532;-90
2021/12/04 07:52:20;;;;;;;10.75;8.20;;;;;;;12.70;70.35;101023.44;4867156;29;101752;-91
2021/12/04 07:54:49;;;;;;;9.38;8.32;;;;;;;12.71;70.18;101025.06;4856359;29;102005;-91
2021/12/04 07:57:16;;;;;;;15.00;8.80;;;;;;;12.71;70.05;101025.06;4860595;29;102105;-91
2021/12/04 07:59:44;;;;;;;17.75;9.18;;;;;;;12.71;70.31;101024.25;4855881;29;102980;-91
2021/12/04 08:02:12;;;;;;;13.40;8.10;;;;;;;12.71;70.22;101027.81;4857462;29;101894;-92
2021/12/04 08:04:39;;;;;;;13.07;8.43;;;;;;;12.71;70.05;101025.06;4864742;29;101978;-91
2021/12/04 08:07:05;;;;;;;14.52;8.70;;;;;;;12.72;70.14;101020.41;4867134;29;102158;-91
2021/12/04 08:09:32;;;;;;;11.32;8.70;;;;;;;12.72;70.27;101015.78;4849864;29;104032;-91
2021/12/04 08:12:00;;;;;;;12.80;8.98;;;;;;;12.71;70.09;101016.88;4836891;29;101796;-92
2021/12/04 08:14:27;;;;;;;13.32;8.98;;;;;;;12.71;70.34;101011.41;4847608;29;101848;-92
2021/12/04 08:16:54;;;;;;;12.00;8.93;;;;;;;12.71;70.27;101011.41;4846439;29;102070;-92
2021/12/04 08:19:21;;;;;;;9.65;8.60;;;;;;;12.71;70.39;101003.22;4846765;29;102857;-90
2021/12/04 08:21:48;;;;;;;10.20;9.20;;;;;;;12.70;70.23;101007.06;4848078;29;102058;-91
2021/12/04 08:24:15;;;;;;;11.15;8.32;;;;;;;12.72;70.25;101004.84;4847403;29;102034;-91
2021/12/04 08:26:43;;;;;;;10.45;8.95;;;;;;;12.71;70.15;101007.88;4848116;29;102000;-90
2021/12/04 08:29:12;;;;;;;15.25;9.50;;;;;;;12.71;70.37;101014.16;4830179;29;102453;-91
2021/12/04 08:31:39;;;;;;;10.63;8.43;;;;;;;12.71;70.20;101008.69;4848008;29;101554;-91
2021/12/04 08:34:05;;;;;;;10.82;9.07;;;;;;;12.71;70.05;101008.69;4847246;29;101745;-91
2021/12/04 08:36:32;;;;;;;10.75;8.25;;;;;;;12.71;70.28;101011.41;4848828;29;102131;-92
2021/12/04 08:38:59;;;;;;;10.57;9.07;;;;;;;12.71;70.25;100997.75;4847096;29;102815;-92
2021/12/04 08:41:26;;;;;;;10.73;8.63;;;;;;;12.71;70.14;100986.84;4847806;29;102014;-91
2021/12/04 08:43:55;;;;;;;13.00;9.02;;;;;;;12.71;70.16;100986.84;4830240;29;102106;-92
2021/12/04 08:46:23;;;;;;;13.60;9.30;;;;;;;12.71;70.22;100975.91;4830530;29;101684;-92
2021/12/04 08:48:51;;;;;;;10.50;9.40;;;;;;;12.71;70.31;100978.66;4830261;29;102097;-92
2021/12/04 11:23:05;;;;;;;11.77;10.07;;;;;;;12.55;70.39;100837.84;5069446;27;102982;-90
2021/12/04 11:26:04;;;;;;;12.35;10.57;;;;;;;12.55;70.08;100835.13;5035286;27;102900;-90
2021/12/04 11:39:36;;;;;;;11.70;10.50;;;;;;;12.59;70.37;100813.53;5050139;27;102738;-90
2021/12/04 11:44:53;;;;;;;12.00;10.70;;;;;;;12.59;70.34;100808.88;5027678;27;102513;-89
2021/12/04 11:47:21;;;;;;;11.50;10.30;;;;;;;12.59;70.13;100797.97;5026716;27;102335;-89
2021/12/04 11:49:48;;;;;;;14.13;10.85;;;;;;;12.61;70.33;100812.13;5036183;27;102854;-88
2021/12/04 11:52:18;;;;;;;11.60;10.38;;;;;;;12.62;70.53;100812.94;5043138;27;102323;-87
2021/12/04 11:54:47;;;;;;;13.23;9.98;;;;;;;12.61;70.26;100801.22;5049165;27;102535;-87
2021/12/04 11:57:17;;;;;;;15.23;10.70;;;;;;;12.61;70.14;100806.66;5038540;27;102242;-92
2021/12/04 11:59:46;;;;;;;11.68;10.48;;;;;;;12.62;70.57;100805.59;5029319;27;103877;-86
2021/12/04 12:02:19;;;;;;;11.18;9.77;;;;;;;12.63;70.44;100804.50;5020551;27;102508;-87
2021/12/04 12:04:48;;;;;;;12.45;10.43;;;;;;;12.63;70.13;100793.56;5029361;27;102383;-94
2021/12/04 12:07:15;;;;;;;;;;;;;;;12.63;70.28;100795.47;5023710;27;102240;-87
2021/12/04 12:09:43;;;;;;;11.98;10.57;;;;;;;12.63;70.37;100799.03;5024184;27;102435;-87
2021/12/04 12:12:14;;;;;;;12.57;10.57;;;;;;;12.64;70.11;100788.91;5028307;27;102065;-87
2021/12/04 12:15:07;;;;;;;11.95;10.73;;;;;;;12.63;69.93;100782.66;5024452;27;102459;-87
2021/12/04 12:17:33;;;;;;;10.90;9.80;;;;;;;12.65;70.10;100793.28;5024171;27;102897;-88
2021/12/04 12:20:02;;;;;;;11.25;10.05;;;;;;;12.64;69.86;100791.66;5022629;27;103970;-88
2021/12/04 12:22:41;;;;;;;10.60;9.50;;;;;;;12.63;70.17;100788.09;5024991;27;102131;-88
2021/12/04 12:25:23;;;;;;;11.23;9.93;;;;;;;12.64;70.10;100784.25;5017298;28;102613;-88
2021/12/04 12:36:04;;;;;;;11.05;9.95;;;;;;;12.64;69.99;100784.25;5016434;28;102109;-87
2021/12/04 12:38:36;;;;;;;11.18;10.00;;;;;;;12.64;70.07;100778.81;5024268;27;102223;-87
2021/12/04 12:41:05;;;;;;;11.40;10.20;;;;;;;12.65;70.06;100780.44;5028861;27;102777;-87
2021/12/04 12:43:41;;;;;;;11.68;10.07;;;;;;;12.65;69.97;100774.97;5020830;27;103303;-87
2021/12/04 12:46:08;;;;;;;10.80;9.70;;;;;;;12.65;70.06;100765.97;5003305;28;102180;-87
2021/12/04 12:48:43;;;;;;;12.57;9.73;;;;;;;12.64;70.09;100773.34;5011583;27;102245;-91
2021/12/04 12:51:11;;;;;;;10.75;9.68;;;;;;;12.65;70.04;100776.88;5010649;28;103866;-92
2021/12/04 12:53:44;;;;;;;10.70;9.60;;;;;;;12.65;69.85;100769.50;5006739;28;102376;-90
2021/12/04 12:56:14;;;;;;;10.38;9.27;;;;;;;12.64;69.93;100767.88;5010768;28;102560;-91
2021/12/04 12:58:54;;;;;;;10.73;9.63;;;;;;;12.65;69.88;100771.44;5012272;28;102509;-90
2021/12/04 13:13:29;;;;;;;10.02;9.00;;;;;;;12.65;69.88;100749.59;5029553;27;102703;-87
2021/12/04 13:16:05;;;;;;;10.43;9.32;;;;;;;12.63;69.77;100738.97;5033626;27;102499;-87
2021/12/04 13:18:35;;;;;;;10.35;9.35;;;;;;;12.65;70.02;100741.38;5028907;27;103305;-88
2021/12/04 13:21:05;;;;;;;10.40;9.30;;;;;;;12.64;69.88;100740.59;5025286;27;102826;-88
2021/12/04 13:23:32;;;;;;;11.05;9.95;;;;;;;12.64;70.04;100754.22;5031147;27;103873;-88
2021/12/04 13:26:02;;;;;;;10.30;9.30;;;;;;;12.64;70.07;100740.59;5011060;28;102464;-86
2021/12/04 13:28:31;;;;;;;10.25;9.13;;;;;;;12.63;69.77;100744.41;5014520;28;103335;-86
2021/12/04 13:31:00;;;;;;;;;;;;;;;12.64;69.91;100740.59;5010525;28;102287;-87
2021/12/04 13:33:27;;;;;;;9.88;8.88;;;;;;;12.63;70.03;100738.97;5004651;27;104160;-88
2021/12/04 13:35:53;;;;;;;11.15;9.25;;;;;;;12.65;70.18;100747.66;5016067;28;103121;-90
2021/12/04 13:38:24;;;;;;;11.85;9.77;;;;;;;12.61;69.75;100745.78;5013092;27;102666;-89
2021/12/04 13:40:55;;;;;;;10.43;9.30;;;;;;;12.59;69.90;100743.38;5019599;28;102564;-89
2021/12/04 13:43:30;;;;;;;11.52;9.73;;;;;;;12.59;69.90;100748.81;5006242;28;102646;-88
2021/12/04 13:46:03;;;;;;;;;;;;;;;12.60;70.05;100739.53;5011660;28;102456;-88
2021/12/04 13:48:32;;;;;;;10.40;9.40;;;;;;;12.60;69.90;100738.72;5027257;27;102771;-87
2021/12/04 13:51:00;;;;;;;11.82;9.55;;;;;;;12.59;70.07;100748.81;5019629;28;102170;-89
2021/12/04 13:53:30;;;;;;;9.65;8.73;;;;;;;12.58;70.01;100747.16;5010985;27;102738;-87
2021/12/04 13:56:02;;;;;;;10.32;9.27;;;;;;;12.57;70.22;100734.63;5012837;28;102342;-87
2021/12/04 13:58:28;;;;;;;10.85;9.48;;;;;;;12.58;70.05;100736.25;5012716;28;102448;-87
2021/12/04 14:00:55;;;;;;;12.13;9.45;;;;;;;12.57;69.83;100740.09;5013115;28;102280;-88
2021/12/04 14:03:25;;;;;;;10.38;9.38;;;;;;;12.56;70.07;100732.19;5008580;27;102828;-87
2021/12/04 14:05:52;;;;;;;11.35;9.88;;;;;;;12.55;69.82;100736.84;5007074;28;102402;-86
2021/12/04 14:08:19;;;;;;;10.18;9.15;;;;;;;12.55;70.02;100734.13;5011396;28;102530;-85
2021/12/04 14:10:48;;;;;;;10.13;9.13;;;;;;;12.55;69.59;100731.38;5012109;28;102336;-86
2021/12/04 14:13:16;;;;;;;10.65;9.55;;;;;;;12.54;69.92;100734.38;5007643;28;102760;-86
2021/12/04 14:15:47;;;;;;;10.57;9.52;;;;;;;12.53;69.75;100733.56;5015914;28;102309;-86
2021/12/04 14:18:15;;;;;;;10.13;9.05;;;;;;;12.54;69.92;100729.72;5006765;28;102083;-87
2021/12/04 14:20:47;;;;;;;10.48;9.38;;;;;;;12.54;69.95;100735.19;5007342;28;102171;-88
2021/12/04 14:23:14;;;;;;;10.60;9.15;;;;;;;12.53;69.81;100732.75;5006158;28;102713;-86
2021/12/04 14:25:43;;;;;;;10.10;9.07;;;;;;;12.53;69.55;100732.75;5011655;28;102506;-86
2021/12/04 14:28:10;;;;;;;;;;;;;;;12.53;69.67;100749.13;5011061;28;102407;-86
2021/12/04 14:30:38;;;;;;;10.90;9.73;;;;;;;12.52;69.65;100748.31;5014000;28;102641;-87
2021/12/04 14:33:07;;;;;;;10.13;9.00;;;;;;;12.52;69.52;100742.88;5008590;28;104952;-87
2021/12/04 14:35:36;;;;;;;9.63;8.63;;;;;;;12.53;69.69;100754.59;5015592;28;102494;-87
2021/12/04 14:38:06;;;;;;;10.32;9.20;;;;;;;12.52;69.66;100753.78;5012689;28;102441;-84
2021/12/04 14:40:36;;;;;;;11.75;9.27;;;;;;;12.53;69.68;100758.13;5005507;28;102473;-90
2021/12/04 14:43:09;;;;;;;10.95;9.00;;;;;;;12.53;69.28;100765.50;5011475;28;107825;-91
2021/12/04 14:45:36;;;;;;;;;;;;;;;12.53;69.55;100760.06;5020257;28;102402;-90
2021/12/04 14:48:05;;;;;;;10.60;9.00;;;;;;;12.53;69.53;100760.06;5011512;28;102177;-90
2021/12/04 14:50:34;;;;;;;11.95;9.18;;;;;;;12.52;69.84;100753.78;5008736;28;102563;-89
2021/12/04 14:53:03;;;;;;;12.55;8.75;;;;;;;12.52;69.58;100759.25;5009671;28;102340;-88
2021/12/04 14:55:32;;;;;;;10.05;9.05;;;;;;;12.54;69.54;100761.69;5035657;27;101811;-89
2021/12/04 14:58:00;;;;;;;10.23;8.93;;;;;;;12.53;69.68;100760.06;5007490;28;102120;-87
2021/12/04 15:00:30;;;;;;;10.20;8.63;;;;;;;12.53;69.79;100760.06;5011966;28;102244;-87
2021/12/04 15:03:07;;;;;;;12.60;8.98;;;;;;;12.53;69.38;100752.69;5013646;28;103960;-89
2021/12/04 15:05:38;;;;;;;11.02;9.10;;;;;;;12.52;69.60;100748.31;5015133;28;102244;-89
2021/12/04 15:08:07;;;;;;;10.25;9.15;;;;;;;12.53;69.59;100749.94;5012410;28;102090;-88
2021/12/04 15:10:36;;;;;;;11.80;9.27;;;;;;;12.53;69.80;100744.50;5015103;28;102205;-88
2021/12/04 15:13:06;;;;;;;10.38;9.13;;;;;;;12.53;69.52;100749.94;5012444;27;103937;-88
2021/12/04 15:15:36;;;;;;;10.48;8.43;;;;;;;12.52;69.42;100753.78;5012883;28;102089;-87
2021/12/04 15:18:09;;;;;;;10.43;9.27;;;;;;;12.52;69.43;100759.25;5010322;28;102675;-88
2021/12/04 15:20:41;;;;;;;10.65;8.85;;;;;;;12.53;69.34;100760.06;5004390;28;102167;-88
2021/12/04 15:23:09;;;;;;;10.45;8.88;;;;;;;12.53;69.51;100755.41;5010141;28;103910;-88
2021/12/04 15:25:37;;;;;;;10.38;8.98;;;;;;;12.53;69.52;100758.13;5010014;28;102682;-88
2021/12/04 15:28:14;;;;;;;10.73;8.68;;;;;;;12.53;69.41;100769.06;5005012;28;102870;-87
2021/12/04 15:30:45;;;;;;;10.55;8.18;;;;;;;12.53;69.82;100766.31;5008622;28;102312;-89
2021/12/04 15:33:23;;;;;;;11.10;9.27;;;;;;;12.53;69.59;100777.25;5006163;28;103266;-88
2021/12/04 15:35:50;;;;;;;10.40;8.18;;;;;;;12.54;69.41;100794.44;5000965;28;102463;-88
2021/12/04 15:38:34;;;;;;;9.52;8.52;;;;;;;12.53;69.56;100792.81;5000751;28;102350;-88